Time;durP1;ratioP1;P1;durP2;ratioP2;P2;SDS_P1;SDS_P2;PMS_P1;PMS_P2;Temp;Humidity;BMP_temperature;BMP_pressure;BME280_temperature;BME280_humidity;BME280_pressure;Samples;Min_cycle;Max_cycle;Signal;HPM_P1;HPM_P2
2022/08/10 00:00:21;;;;;;;4.43;2.40;;;22.90;45.30;;;;;;20920886;28;20235;-68
2022/08/10 00:10:25;;;;;;;6.37;2.70;;;22.80;45.40;;;;;;20920504;28;20200;-67
2022/08/10 00:20:27;;;;;;;3.83;2.50;;;22.70;45.60;;;;;;20918131;28;20231;-67
2022/08/10 00:30:28;;;;;;;6.73;2.87;;;22.60;45.90;;;;;;20918796;28;20655;-68
2022/08/10 00:40:30;;;;;;;6.90;2.77;;;22.40;46.30;;;;;;20917847;28;20232;-65
2022/08/10 00:50:38;;;;;;;9.70;2.60;;;22.20;47.50;;;;;;20917221;28;20266;-67
2022/08/10 01:00:41;;;;;;;11.00;3.13;;;22.10;47.90;;;;;;20898489;28;20290;-66
2022/08/10 01:10:55;;;;;;;3.77;2.73;;;21.90;47.80;;;;;;20915627;28;20200;-67
2022/08/10 01:21:15;;;;;;;3.80;3.00;;;21.80;48.20;;;;;;20915215;28;20239;-67
2022/08/10 01:31:22;;;;;;;7.37;3.40;;;21.70;48.70;;;;;;20914224;28;20215;-66
2022/08/10 01:41:28;;;;;;;6.40;3.50;;;21.50;49.90;;;;;;20913576;28;20681;-66
2022/08/10 01:51:53;;;;;;;9.33;3.50;;;21.40;51.30;;;;;;20913011;28;20631;-67
2022/08/10 02:02:08;;;;;;;5.10;3.33;;;21.20;52.20;;;;;;20911967;28;20296;-67
2022/08/10 02:12:14;;;;;;;3.47;3.00;;;21.00;52.50;;;;;;20912189;28;20581;-67
2022/08/10 02:22:17;;;;;;;5.47;3.13;;;20.90;53.10;;;;;;20912987;28;20242;-67
2022/08/10 02:32:40;;;;;;;8.27;3.97;;;20.80;52.70;;;;;;20912470;28;20618;-67
2022/08/10 02:43:04;;;;;;;7.00;3.50;;;20.60;52.70;;;;;;20910729;28;20241;-68
2022/08/10 02:53:40;;;;;;;5.90;3.20;;;20.40;53.20;;;;;;20910616;28;20285;-66
2022/08/10 03:04:07;;;;;;;6.30;3.90;;;20.20;53.50;;;;;;20910283;28;20248;-66
2022/08/10 03:14:10;;;;;;;6.40;3.40;;;20.10;53.90;;;;;;20918996;28;20248;-66
2022/08/10 03:24:13;;;;;;;12.10;4.00;;;19.70;54.00;;;;;;20923861;28;20206;-66
2022/08/10 03:34:35;;;;;;;7.93;3.50;;;19.70;54.60;;;;;;20923604;28;20243;-66
2022/08/10 03:44:39;;;;;;;5.37;3.40;;;19.50;54.90;;;;;;20922259;28;20239;-67
2022/08/10 03:54:42;;;;;;;4.87;3.60;;;19.30;55.00;;;;;;20921502;28;20288;-65
2022/08/10 04:04:43;;;;;;;14.43;3.53;;;19.20;55.60;;;;;;20921164;28;20212;-66
2022/08/10 04:14:45;;;;;;;6.00;3.77;;;19.10;56.00;;;;;;20919931;28;20231;-72
2022/08/10 04:24:57;;;;;;;5.47;3.90;;;18.90;56.30;;;;;;20921403;28;20713;-72
2022/08/10 04:35:01;;;;;;;5.97;3.83;;;18.90;56.30;;;;;;20918771;28;20253;-72
2022/08/10 04:45:10;;;;;;;5.53;3.90;;;18.80;56.50;;;;;;20917382;28;20236;-71
2022/08/10 04:55:12;;;;;;;7.50;3.90;;;18.80;56.50;;;;;;20916655;28;20232;-70
2022/08/10 05:05:13;;;;;;;10.33;3.90;;;18.90;56.60;;;;;;20916165;28;20204;-71
2022/08/10 05:15:18;;;;;;;19.27;4.60;;;18.90;56.80;;;;;;20915135;28;20603;-71
2022/08/10 05:25:20;;;;;;;7.97;4.60;;;19.00;57.00;;;;;;20914077;28;20205;-72
2022/08/10 05:35:22;;;;;;;26.57;4.53;;;19.10;56.90;;;;;;20912971;28;20241;-71
2022/08/10 05:45:26;;;;;;;10.03;4.63;;;19.30;57.00;;;;;;20912438;28;20231;-71
2022/08/10 05:55:30;;;;;;;19.50;5.70;;;19.40;56.70;;;;;;20908696;28;20241;-72
2022/08/10 06:05:36;;;;;;;11.20;5.07;;;19.50;56.20;;;;;;20910581;28;20205;-72
2022/08/10 06:15:38;;;;;;;8.27;3.73;;;19.70;56.00;;;;;;20908393;28;20284;-72
2022/08/10 06:25:52;;;;;;;16.03;4.00;;;19.90;55.30;;;;;;20912331;28;20217;-72
2022/08/10 06:36:15;;;;;;;9.53;3.90;;;20.20;54.90;;;;;;20909270;28;20234;-73
